createdAt,value
2022-12-23T00:00:55.160Z,7.10
2022-12-23T00:03:44.244Z,7.10
2022-12-23T00:06:33.193Z,7.10
2022-12-23T00:09:23.417Z,7.10
2022-12-23T00:12:29.373Z,7.10
2022-12-23T00:15:18.389Z,7.10
2022-12-23T00:18:07.218Z,7.10
2022-12-23T00:21:04.781Z,7.20
2022-12-23T00:23:56.881Z,7.20
2022-12-23T00:26:47.102Z,7.10
2022-12-23T00:29:36.393Z,7.20
2022-12-23T00:32:25.088Z,7.10
2022-12-23T00:35:13.814Z,7.10
2022-12-23T00:38:02.553Z,7.20
2022-12-23T00:41:10.088Z,7.20
2022-12-23T00:44:00.156Z,7.30
2022-12-23T00:46:49.119Z,7.30
2022-12-23T00:49:43.096Z,7.30
2022-12-23T00:52:31.830Z,7.30
2022-12-23T00:55:21.208Z,7.30
2022-12-23T00:58:09.887Z,7.30
2022-12-23T01:01:17.442Z,7.30
2022-12-23T01:04:35.530Z,7.30
2022-12-23T01:07:28.756Z,7.30
2022-12-23T01:10:17.522Z,7.30
2022-12-23T01:13:07.291Z,7.20
2022-12-23T01:16:03.230Z,7.20
2022-12-23T01:18:51.958Z,7.30
2022-12-23T01:21:41.902Z,7.30
2022-12-23T01:24:31.530Z,7.30
2022-12-23T01:27:20.277Z,7.30
2022-12-23T01:30:10.135Z,7.30
2022-12-23T01:33:00.235Z,7.30
2022-12-23T01:35:49.494Z,7.30
2022-12-23T01:38:38.229Z,7.30
2022-12-23T01:41:46.511Z,7.30
2022-12-23T01:45:07.441Z,7.40
2022-12-23T01:48:00.184Z,7.30
2022-12-23T01:50:52.919Z,7.40
2022-12-23T01:53:45.977Z,7.40
2022-12-23T01:56:39.444Z,7.50
2022-12-23T01:59:42.224Z,7.40
2022-12-23T02:02:49.320Z,7.40
2022-12-23T02:05:40.330Z,7.40
2022-12-23T02:08:48.794Z,7.40
2022-12-23T02:11:51.200Z,7.40
2022-12-23T02:15:11.590Z,7.50
2022-12-23T02:18:16.486Z,7.40
2022-12-23T02:21:32.108Z,7.40
2022-12-23T02:25:08.787Z,7.40
2022-12-23T02:28:19.456Z,7.50
2022-12-23T02:31:13.265Z,7.50
2022-12-23T02:34:11.092Z,7.50
2022-12-23T02:37:05.200Z,7.60
2022-12-23T02:39:59.812Z,7.60
2022-12-23T02:42:55.216Z,7.60
2022-12-23T02:45:47.985Z,7.50
2022-12-23T02:48:43.953Z,7.60
2022-12-23T02:51:36.246Z,7.60
2022-12-23T02:54:29.934Z,7.60
2022-12-23T02:57:22.628Z,7.60
2022-12-23T03:00:12.881Z,7.60
2022-12-23T03:03:01.872Z,7.70
2022-12-23T03:05:53.690Z,7.70
2022-12-23T03:08:45.727Z,7.70
2022-12-23T03:11:44.787Z,7.70
2022-12-23T03:14:51.735Z,7.60
2022-12-23T03:17:54.906Z,7.70
2022-12-23T03:21:14.275Z,7.70
2022-12-23T03:24:13.448Z,7.70
2022-12-23T03:27:06.394Z,7.70
2022-12-23T03:30:00.712Z,7.70
2022-12-23T03:32:53.685Z,7.70
2022-12-23T03:35:46.600Z,7.70
2022-12-23T03:38:40.106Z,7.70
2022-12-23T03:41:32.448Z,7.80
2022-12-23T03:44:25.837Z,7.80
2022-12-23T03:47:18.959Z,7.80
2022-12-23T03:50:10.900Z,7.80
2022-12-23T03:53:04.179Z,7.80
2022-12-23T03:56:00.439Z,7.80
2022-12-23T03:58:54.759Z,7.70
2022-12-23T04:01:50.165Z,7.70
2022-12-23T04:04:57.868Z,7.80
2022-12-23T04:07:53.028Z,7.70
2022-12-23T04:10:42.239Z,7.80
2022-12-23T04:13:32.957Z,7.90
2022-12-23T04:16:21.834Z,7.90
2022-12-23T04:19:11.499Z,7.90
2022-12-23T04:22:00.263Z,7.90
2022-12-23T04:24:48.959Z,7.80
2022-12-23T04:27:37.949Z,7.90
2022-12-23T04:30:33.944Z,7.90
2022-12-23T04:33:23.338Z,7.90
2022-12-23T04:36:12.733Z,7.80
2022-12-23T04:39:01.370Z,7.80
2022-12-23T04:41:50.108Z,7.80
2022-12-23T04:44:38.910Z,7.80
2022-12-23T04:47:28.968Z,7.80
2022-12-23T04:50:18.786Z,7.90
2022-12-23T04:53:07.648Z,7.90
2022-12-23T04:55:56.362Z,7.80
2022-12-23T04:58:45.162Z,7.80
2022-12-23T05:01:34.045Z,7.80
2022-12-23T05:04:24.211Z,7.80
2022-12-23T05:07:12.975Z,7.70
2022-12-23T05:10:02.341Z,7.70
2022-12-23T05:12:51.133Z,7.70
2022-12-23T05:15:40.336Z,7.70
2022-12-23T05:18:29.098Z,7.70
2022-12-23T05:21:19.336Z,7.70
2022-12-23T05:24:08.380Z,7.70
2022-12-23T05:27:00.142Z,7.70
2022-12-23T05:29:49.255Z,7.70
2022-12-23T05:32:39.507Z,7.70
2022-12-23T05:35:29.150Z,7.60
2022-12-23T05:38:19.390Z,7.70
2022-12-23T05:41:08.529Z,7.60
2022-12-23T05:43:57.264Z,7.70
2022-12-23T05:46:46.311Z,7.60
2022-12-23T05:49:34.993Z,7.70
2022-12-23T05:52:23.705Z,7.50
2022-12-23T05:55:13.843Z,7.60
2022-12-23T05:58:03.228Z,7.50
2022-12-23T06:00:51.965Z,7.60
2022-12-23T06:03:40.842Z,7.50
2022-12-23T06:06:30.366Z,7.60
2022-12-23T06:09:19.051Z,7.50
2022-12-23T06:12:09.463Z,7.50
2022-12-23T06:14:58.123Z,7.50
2022-12-23T06:17:46.909Z,7.50
2022-12-23T06:20:35.606Z,7.40
2022-12-23T06:23:24.270Z,7.30
2022-12-23T06:26:12.963Z,7.30
2022-12-23T06:29:03.524Z,7.30
2022-12-23T06:31:52.322Z,7.40
2022-12-23T06:34:41.525Z,7.40
2022-12-23T06:37:30.913Z,7.30
2022-12-23T06:40:19.947Z,7.40
2022-12-23T06:43:10.077Z,7.40
2022-12-23T06:46:00.212Z,7.30
2022-12-23T06:48:49.088Z,7.30
2022-12-23T06:51:37.763Z,7.30
2022-12-23T06:54:26.458Z,7.30
2022-12-23T06:57:15.325Z,7.40
2022-12-23T07:00:05.414Z,7.30
2022-12-23T07:02:56.290Z,7.40
2022-12-23T07:05:48.542Z,7.40
2022-12-23T07:08:37.197Z,7.30
2022-12-23T07:11:26.747Z,7.30
2022-12-23T07:14:15.411Z,7.30
2022-12-23T07:17:04.210Z,7.20
2022-12-23T07:19:54.341Z,7.30
2022-12-23T07:22:43.002Z,7.30
2022-12-23T07:25:32.143Z,7.40
2022-12-23T07:28:20.874Z,7.40
2022-12-23T07:31:09.781Z,7.40
2022-12-23T07:33:58.435Z,7.50
2022-12-23T07:36:48.716Z,7.40
2022-12-23T07:39:38.075Z,7.40
2022-12-23T07:42:45.011Z,7.30
2022-12-23T07:45:35.553Z,7.30
2022-12-23T07:48:24.520Z,7.30
2022-12-23T07:51:13.557Z,7.30
2022-12-23T07:54:03.918Z,7.40
2022-12-23T07:56:58.279Z,7.30
2022-12-23T07:59:47.158Z,7.40
2022-12-23T08:02:36.433Z,7.40
2022-12-23T08:05:25.699Z,7.40
2022-12-23T08:08:14.516Z,7.40
2022-12-23T08:11:06.546Z,7.40
2022-12-23T08:13:55.248Z,7.30
2022-12-23T08:16:44.580Z,7.20
2022-12-23T08:19:33.424Z,7.20
2022-12-23T08:22:22.417Z,7.20
2022-12-23T08:25:11.493Z,7.20
2022-12-23T08:28:01.740Z,7.30
2022-12-23T08:30:50.906Z,7.30
2022-12-23T08:33:41.779Z,7.20
2022-12-23T08:36:32.553Z,7.30
2022-12-23T08:39:21.478Z,7.30
2022-12-23T08:42:10.273Z,7.30
2022-12-23T08:45:01.269Z,7.40
2022-12-23T08:47:49.913Z,7.40
2022-12-23T08:50:39.761Z,7.40
2022-12-23T08:53:28.755Z,7.30
2022-12-23T08:56:20.209Z,7.40
2022-12-23T08:59:18.301Z,7.50
2022-12-23T09:02:12.263Z,7.50
2022-12-23T09:05:01.154Z,7.60
2022-12-23T09:07:49.767Z,7.70
2022-12-23T09:10:42.980Z,7.70
2022-12-23T09:13:35.475Z,7.70
2022-12-23T09:16:25.424Z,7.70
2022-12-23T09:19:15.694Z,7.70
2022-12-23T09:22:04.421Z,7.70
2022-12-23T09:24:53.264Z,7.80
2022-12-23T09:27:42.682Z,7.80
2022-12-23T09:30:31.643Z,7.70
2022-12-23T09:33:21.130Z,7.80
2022-12-23T09:36:11.412Z,7.80
2022-12-23T09:39:04.433Z,7.80
2022-12-23T09:42:04.409Z,7.90
2022-12-23T09:45:19.128Z,7.90
2022-12-23T09:48:14.760Z,7.80
2022-12-23T09:51:05.795Z,7.90
2022-12-23T09:54:01.497Z,7.80
2022-12-23T09:56:55.893Z,7.80
2022-12-23T10:00:00.550Z,7.80
2022-12-23T10:03:04.374Z,7.90
2022-12-23T10:06:03.834Z,7.90
2022-12-23T10:08:59.331Z,8.00
2022-12-23T10:11:52.029Z,7.90
2022-12-23T10:14:44.273Z,7.90
2022-12-23T10:17:39.576Z,7.80
2022-12-23T10:20:37.738Z,7.80
2022-12-23T10:23:31.957Z,7.80
2022-12-23T10:26:25.882Z,7.80
2022-12-23T10:29:19.721Z,7.70
2022-12-23T10:32:19.875Z,7.80
2022-12-23T10:35:17.050Z,7.80
2022-12-23T10:38:20.029Z,7.80
2022-12-23T10:41:19.885Z,7.70
2022-12-23T10:44:34.227Z,7.70
2022-12-23T10:47:35.458Z,7.70
2022-12-23T10:50:57.533Z,7.80
2022-12-23T10:53:52.543Z,7.80
2022-12-23T10:56:41.774Z,7.80
2022-12-23T10:59:34.030Z,7.80
2022-12-23T11:02:46.523Z,7.80
2022-12-23T11:05:36.752Z,7.80
2022-12-23T11:08:27.693Z,7.70
2022-12-23T11:11:16.418Z,7.70
2022-12-23T11:14:06.124Z,7.70
2022-12-23T11:16:56.204Z,7.70
2022-12-23T11:19:44.924Z,7.70
2022-12-23T11:22:33.624Z,7.70
2022-12-23T11:25:43.977Z,7.70
2022-12-23T11:28:34.871Z,7.70
2022-12-23T11:31:28.733Z,7.70
2022-12-23T11:34:21.442Z,7.70
2022-12-23T11:37:27.282Z,7.70
2022-12-23T11:40:23.965Z,7.60
2022-12-23T11:43:17.097Z,7.70
2022-12-23T11:46:17.484Z,7.70
2022-12-23T11:49:16.532Z,7.60
2022-12-23T11:52:13.889Z,7.50
2022-12-23T11:55:04.374Z,7.60
2022-12-23T11:57:54.821Z,7.50
2022-12-23T12:00:55.617Z,7.60
2022-12-23T12:03:53.260Z,7.50
2022-12-23T12:06:48.396Z,7.50
2022-12-23T12:09:43.525Z,7.60
2022-12-23T12:12:34.183Z,7.50
2022-12-23T12:15:37.081Z,7.60
2022-12-23T12:18:27.141Z,7.60
2022-12-23T12:21:20.105Z,7.60
2022-12-23T12:24:19.222Z,7.50
2022-12-23T12:27:12.494Z,7.70
2022-12-23T12:30:08.646Z,7.60
2022-12-23T12:33:04.344Z,7.60
2022-12-23T12:36:05.337Z,7.60
2022-12-23T12:38:57.886Z,7.70
2022-12-23T12:41:53.594Z,7.70
2022-12-23T12:44:53.147Z,7.60
2022-12-23T12:47:57.857Z,7.60
2022-12-23T12:51:00.868Z,7.50
2022-12-23T12:54:05.670Z,7.60
2022-12-23T12:56:56.889Z,7.60
2022-12-23T12:59:51.366Z,7.60
2022-12-23T13:03:00.455Z,7.70
2022-12-23T13:06:14.421Z,7.60
2022-12-23T13:09:08.733Z,7.50
2022-12-23T13:12:06.912Z,7.60
2022-12-23T13:15:04.300Z,7.60
2022-12-23T13:18:06.877Z,7.60
2022-12-23T13:21:01.987Z,7.60
2022-12-23T13:24:03.451Z,7.60
2022-12-23T13:27:06.964Z,7.60
2022-12-23T13:30:05.473Z,7.70
2022-12-23T13:33:09.316Z,7.70
2022-12-23T13:36:32.763Z,7.70
2022-12-23T13:39:33.313Z,7.70
2022-12-23T13:42:29.763Z,7.70
2022-12-23T13:45:21.425Z,7.70
2022-12-23T13:48:26.005Z,7.70
2022-12-23T13:51:20.088Z,7.70
2022-12-23T13:54:21.877Z,7.80
2022-12-23T13:57:27.111Z,7.80
2022-12-23T14:00:30.217Z,7.80
2022-12-23T14:03:25.708Z,7.80
2022-12-23T14:06:42.222Z,7.90
2022-12-23T14:09:34.656Z,7.90
2022-12-23T14:12:27.757Z,7.90
2022-12-23T14:15:49.259Z,7.80
2022-12-23T14:19:02.389Z,7.80
2022-12-23T14:22:02.643Z,7.80
2022-12-23T14:25:30.586Z,7.80
2022-12-23T14:28:43.756Z,7.80
2022-12-23T14:31:42.681Z,7.90
2022-12-23T14:34:36.212Z,7.90
2022-12-23T14:37:35.849Z,7.90
2022-12-23T14:41:14.599Z,7.80
2022-12-23T14:44:03.291Z,7.90
2022-12-23T14:46:58.417Z,7.90
2022-12-23T14:49:47.283Z,7.90
2022-12-23T14:52:51.370Z,7.80
2022-12-23T14:55:52.001Z,7.90
2022-12-23T14:59:04.933Z,7.90
2022-12-23T15:01:56.901Z,7.80
2022-12-23T15:04:50.502Z,7.80
2022-12-23T15:07:42.818Z,7.80
2022-12-23T15:10:32.413Z,7.80
2022-12-23T15:13:21.538Z,7.80
2022-12-23T15:16:17.893Z,7.80
2022-12-23T15:19:19.435Z,7.90
2022-12-23T15:22:22.176Z,7.80
2022-12-23T15:25:24.290Z,7.90
2022-12-23T15:28:19.547Z,7.90
2022-12-23T15:31:23.058Z,7.90
2022-12-23T15:34:17.635Z,8.00
2022-12-23T15:37:14.124Z,8.00
2022-12-23T15:40:11.971Z,7.90
2022-12-23T15:43:02.388Z,8.00
2022-12-23T15:45:51.950Z,8.10
2022-12-23T15:48:42.032Z,8.10
2022-12-23T15:52:07.042Z,8.10
2022-12-23T15:54:53.714Z,8.10
2022-12-23T15:57:50.098Z,8.10
2022-12-23T16:00:42.742Z,8.10
2022-12-23T16:03:35.818Z,8.10
2022-12-23T16:06:27.209Z,8.20
2022-12-23T16:09:32.806Z,8.10
2022-12-23T16:12:27.024Z,8.20
2022-12-23T16:15:23.895Z,8.20
2022-12-23T16:18:14.340Z,8.20
2022-12-23T16:21:06.313Z,8.20
2022-12-23T16:23:55.415Z,8.30
2022-12-23T16:26:44.423Z,8.30
2022-12-23T16:29:34.652Z,8.30
2022-12-23T16:32:23.591Z,8.30
2022-12-23T16:35:14.249Z,8.30
2022-12-23T16:38:15.355Z,8.40
2022-12-23T16:41:04.107Z,8.30
2022-12-23T16:43:53.275Z,8.40
2022-12-23T16:46:46.214Z,8.30
2022-12-23T16:49:36.914Z,8.40
2022-12-23T16:52:26.191Z,8.40
2022-12-23T16:55:17.254Z,8.40
2022-12-23T16:58:05.992Z,8.50
2022-12-23T17:00:54.831Z,8.40
2022-12-23T17:03:45.041Z,8.50
2022-12-23T17:06:34.099Z,8.50
2022-12-23T17:09:22.923Z,8.50
2022-12-23T17:12:12.591Z,8.50
2022-12-23T17:15:01.468Z,8.50
2022-12-23T17:17:51.662Z,8.60
2022-12-23T17:20:42.810Z,8.60
2022-12-23T17:23:33.335Z,8.60
2022-12-23T17:26:22.080Z,8.60
2022-12-23T17:29:12.756Z,8.60
2022-12-23T17:32:01.874Z,8.60
2022-12-23T17:34:50.753Z,8.60
2022-12-23T17:37:40.949Z,8.60
2022-12-23T17:40:37.302Z,8.70
2022-12-23T17:43:27.056Z,8.70
2022-12-23T17:46:16.550Z,8.70
2022-12-23T17:49:05.532Z,8.70
2022-12-23T17:51:54.773Z,8.70
2022-12-23T17:54:45.975Z,8.70
2022-12-23T17:57:34.793Z,8.70
2022-12-23T18:00:32.028Z,8.80
2022-12-23T18:03:24.834Z,8.70
2022-12-23T18:06:14.984Z,8.80
2022-12-23T18:09:03.832Z,8.70
2022-12-23T18:11:54.908Z,8.80
2022-12-23T18:14:45.051Z,8.70
2022-12-23T18:17:33.836Z,8.80
2022-12-23T18:20:24.426Z,8.70
2022-12-23T18:23:15.540Z,8.70
2022-12-23T18:26:04.802Z,8.70
2022-12-23T18:28:55.139Z,8.70
2022-12-23T18:31:51.418Z,8.80
2022-12-23T18:34:40.821Z,8.80
2022-12-23T18:37:29.879Z,8.70
2022-12-23T18:40:19.148Z,8.70
2022-12-23T18:43:08.684Z,8.70
2022-12-23T18:45:59.061Z,8.60
2022-12-23T18:48:48.141Z,8.60
2022-12-23T18:51:36.949Z,8.60
2022-12-23T18:54:25.742Z,8.60
2022-12-23T18:57:14.463Z,8.50
2022-12-23T19:00:03.832Z,8.60
2022-12-23T19:02:55.225Z,8.60
2022-12-23T19:05:44.080Z,8.50
2022-12-23T19:08:33.095Z,8.60
2022-12-23T19:11:22.529Z,8.60
2022-12-23T19:14:12.440Z,8.60
2022-12-23T19:17:01.940Z,8.60
2022-12-23T19:19:51.980Z,8.60
2022-12-23T19:22:41.150Z,8.60
2022-12-23T19:25:30.004Z,8.50
2022-12-23T19:28:18.791Z,8.50
2022-12-23T19:31:09.078Z,8.50
2022-12-23T19:33:58.000Z,8.50
2022-12-23T19:36:48.368Z,8.50
2022-12-23T19:39:37.343Z,8.50
2022-12-23T19:42:26.150Z,8.30
2022-12-23T19:45:14.971Z,8.40
2022-12-23T19:48:03.714Z,8.40
2022-12-23T19:50:58.329Z,8.40
2022-12-23T19:53:51.979Z,8.50
2022-12-23T19:56:40.850Z,8.50
2022-12-23T19:59:29.613Z,8.50
2022-12-23T20:02:20.100Z,8.50
2022-12-23T20:05:10.657Z,8.40
2022-12-23T20:07:59.647Z,8.40
2022-12-23T20:10:50.987Z,8.30
2022-12-23T20:13:39.832Z,8.30
2022-12-23T20:16:29.485Z,8.20
2022-12-23T20:19:19.032Z,8.10
2022-12-23T20:22:07.905Z,8.20
2022-12-23T20:24:57.139Z,8.10
2022-12-23T20:27:47.324Z,8.10
2022-12-23T20:30:36.179Z,8.10
2022-12-23T20:33:25.041Z,8.20
2022-12-23T20:36:15.414Z,8.20
2022-12-23T20:39:04.600Z,8.20
2022-12-23T20:41:53.261Z,8.10
2022-12-23T20:44:43.379Z,8.10
2022-12-23T20:47:32.177Z,8.20
2022-12-23T20:50:21.124Z,8.10
2022-12-23T20:53:10.611Z,8.00
2022-12-23T20:56:00.989Z,8.00
2022-12-23T20:58:56.098Z,8.10
2022-12-23T21:01:46.504Z,8.10
2022-12-23T21:04:35.377Z,8.10
2022-12-23T21:07:26.319Z,8.10
2022-12-23T21:10:15.577Z,8.10
2022-12-23T21:13:04.684Z,8.10
2022-12-23T21:15:53.649Z,8.10
2022-12-23T21:18:45.996Z,8.10
2022-12-23T21:21:34.951Z,8.10
2022-12-23T21:24:24.395Z,8.10
2022-12-23T21:27:13.164Z,8.10
2022-12-23T21:30:01.892Z,8.10
2022-12-23T21:32:50.792Z,8.10
2022-12-23T21:35:40.887Z,8.10
2022-12-23T21:38:33.835Z,8.10
2022-12-23T21:41:25.370Z,8.00
2022-12-23T21:44:15.120Z,8.00
2022-12-23T21:47:03.980Z,8.00
2022-12-23T21:49:52.761Z,8.10
2022-12-23T21:52:42.891Z,8.10
2022-12-23T21:55:31.658Z,8.00
2022-12-23T21:58:20.422Z,8.00
2022-12-23T22:01:10.030Z,8.10
2022-12-23T22:03:59.409Z,8.00
2022-12-23T22:06:48.242Z,8.10
2022-12-23T22:09:38.415Z,8.10
2022-12-23T22:12:27.268Z,8.00
2022-12-23T22:15:17.214Z,8.00
2022-12-23T22:18:10.142Z,8.00
2022-12-23T22:20:59.145Z,8.00
2022-12-23T22:23:48.595Z,7.90
2022-12-23T22:26:39.075Z,7.90
2022-12-23T22:29:28.328Z,7.90
2022-12-23T22:32:17.090Z,8.00
2022-12-23T22:35:06.511Z,8.10
2022-12-23T22:37:55.369Z,8.00
2022-12-23T22:40:44.083Z,8.10
2022-12-23T22:43:34.946Z,8.10
2022-12-23T22:46:24.656Z,8.10
2022-12-23T22:49:14.619Z,8.10
2022-12-23T22:52:03.694Z,8.10
2022-12-23T22:54:52.498Z,8.20
2022-12-23T22:57:41.205Z,8.10
2022-12-23T23:00:31.496Z,8.00
2022-12-23T23:03:20.247Z,8.10
2022-12-23T23:06:09.851Z,8.10
2022-12-23T23:08:59.286Z,8.10
2022-12-23T23:11:49.075Z,8.10
2022-12-23T23:14:51.658Z,8.10
2022-12-23T23:17:41.930Z,8.20
2022-12-23T23:20:30.718Z,8.20
2022-12-23T23:23:19.437Z,8.20
2022-12-23T23:26:10.380Z,8.20
2022-12-23T23:28:59.075Z,8.20
2022-12-23T23:31:47.936Z,8.10
2022-12-23T23:34:38.482Z,8.10
2022-12-23T23:37:27.938Z,8.10
2022-12-23T23:40:16.774Z,8.00
2022-12-23T23:43:06.012Z,8.10
2022-12-23T23:45:54.931Z,8.10
2022-12-23T23:48:44.840Z,8.10
2022-12-23T23:51:35.082Z,8.10
2022-12-23T23:54:23.812Z,8.10
2022-12-23T23:57:12.755Z,8.00
